Luodian, China
Current Conditions -  °F | °C
As of 12:00 PM on Thursday 23 Oct 2014 (Local Time) from ZUGY Reporting Station
Scattered Clouds Scattered Clouds  
Wind Chill: 57°   Ceiling: Unl
Heat Index: 57°   Visibility: 4mi
Dew Point: 50°   Wind: 4mph
Humidity: 77%   Direction: 330°NNW
Pressure: 30.24"   Gusts: NA
Location:  25.43°N, 106.77°E
Report Text: ZUGY 230400Z 33002MPS 290V040 7000 SCT026 14/10 Q1024 NOSIG
Loading
Personal Weather Stations






























Interactive Weather Map
Tropical Storm Tracking
New forecast layout! Learn more

10-Day Weather Forecast

Advertisements
Track Severe Weather on mobile